createdAt,value
2023-04-30T00:00:36.369Z,16.95
2023-04-30T00:03:38.802Z,15.60
2023-04-30T00:06:41.724Z,15.63
2023-04-30T00:09:44.151Z,16.38
2023-04-30T00:12:46.543Z,16.08
2023-04-30T00:15:48.991Z,15.48
2023-04-30T00:18:51.446Z,14.25
2023-04-30T00:21:54.357Z,14.77
2023-04-30T00:24:56.798Z,14.30
2023-04-30T00:27:59.367Z,13.88
2023-04-30T00:31:01.733Z,13.95
2023-04-30T00:34:04.127Z,15.85
2023-04-30T00:40:44.828Z,14.18
2023-04-30T00:43:47.326Z,14.10
2023-04-30T00:46:49.809Z,13.82
2023-04-30T00:49:52.471Z,14.18
2023-04-30T00:52:55.616Z,14.50
2023-04-30T00:55:58.587Z,13.02
2023-04-30T00:59:01.565Z,13.45
2023-04-30T01:02:04.448Z,13.57
2023-04-30T01:05:07.962Z,13.38
2023-04-30T01:08:11.402Z,13.53
2023-04-30T01:11:41.874Z,10.60
2023-04-30T01:15:05.445Z,13.40
2023-04-30T01:18:22.889Z,12.45
2023-04-30T01:21:26.176Z,13.52
2023-04-30T01:24:53.297Z,13.13
2023-04-30T01:28:17.779Z,13.40
2023-04-30T01:31:20.880Z,14.18
2023-04-30T01:34:23.608Z,15.02
2023-04-30T01:38:00.192Z,14.35
2023-04-30T01:41:18.192Z,12.93
2023-04-30T01:44:48.200Z,14.15
2023-04-30T01:47:54.068Z,14.32
2023-04-30T01:51:05.340Z,13.70
2023-04-30T01:54:23.569Z,14.05
2023-04-30T01:57:33.213Z,13.27
2023-04-30T02:00:35.809Z,13.13
2023-04-30T02:03:38.470Z,13.73
2023-04-30T02:06:42.919Z,13.18
2023-04-30T02:09:45.559Z,13.18
2023-04-30T02:12:48.076Z,13.00
2023-04-30T02:15:50.595Z,13.57
2023-04-30T02:18:53.269Z,13.82
2023-04-30T02:21:55.850Z,13.30
2023-04-30T02:24:58.442Z,12.77
2023-04-30T02:28:00.934Z,13.40
2023-04-30T02:31:04.434Z,11.40
2023-04-30T02:34:06.824Z,17.60
2023-04-30T02:37:09.849Z,17.15
2023-04-30T02:40:13.045Z,16.10
2023-04-30T02:43:15.521Z,11.67
2023-04-30T02:46:18.698Z,13.07
2023-04-30T02:49:21.225Z,15.80
2023-04-30T02:52:23.632Z,14.85
2023-04-30T02:55:26.147Z,14.68
2023-04-30T02:58:28.660Z,15.25
2023-04-30T03:01:31.538Z,14.63
2023-04-30T03:04:34.277Z,14.93
2023-04-30T03:07:36.659Z,16.25
2023-04-30T03:10:39.091Z,15.65
2023-04-30T03:13:43.395Z,15.90
2023-04-30T03:16:45.746Z,15.93
2023-04-30T03:19:48.061Z,18.60
2023-04-30T03:22:50.370Z,18.80
2023-04-30T03:25:52.793Z,18.65
2023-04-30T03:28:56.002Z,18.05
2023-04-30T03:31:59.124Z,16.83
2023-04-30T03:35:01.808Z,13.07
2023-04-30T03:38:04.791Z,11.68
2023-04-30T03:41:07.264Z,9.80
2023-04-30T03:44:15.820Z,9.82
2023-04-30T03:47:18.486Z,9.15
2023-04-30T03:50:20.923Z,9.38
2023-04-30T03:53:24.661Z,11.70
2023-04-30T03:56:27.343Z,21.08
2023-04-30T03:59:29.824Z,24.38
2023-04-30T04:02:32.569Z,25.15
2023-04-30T04:05:35.008Z,22.73
2023-04-30T04:08:37.586Z,18.73
2023-04-30T04:11:40.803Z,14.68
2023-04-30T04:14:43.273Z,13.57
2023-04-30T04:17:45.893Z,11.20
2023-04-30T04:20:48.313Z,9.98
2023-04-30T04:23:52.389Z,9.10
2023-04-30T04:26:54.880Z,8.60
2023-04-30T04:29:57.378Z,11.48
2023-04-30T04:33:00.624Z,10.40
2023-04-30T04:36:05.351Z,9.60
2023-04-30T04:39:08.269Z,9.45
2023-04-30T04:42:12.329Z,8.07
2023-04-30T04:45:15.950Z,5.88
2023-04-30T04:48:18.701Z,5.40
2023-04-30T04:51:21.280Z,6.10
2023-04-30T04:54:24.112Z,5.95
2023-04-30T04:57:26.887Z,5.25
2023-04-30T05:00:30.000Z,5.35
2023-04-30T05:03:33.446Z,5.40
2023-04-30T05:06:36.312Z,4.25
2023-04-30T05:09:39.031Z,5.80
2023-04-30T05:12:41.583Z,4.47
2023-04-30T05:15:43.948Z,4.82
2023-04-30T05:18:46.506Z,4.50
2023-04-30T05:21:48.930Z,4.57
2023-04-30T05:24:53.254Z,4.10
2023-04-30T05:30:58.888Z,4.60
2023-04-30T05:34:01.240Z,4.15
2023-04-30T05:37:04.230Z,3.70
2023-04-30T05:40:07.460Z,3.67
2023-04-30T05:43:10.148Z,4.10
2023-04-30T05:46:12.585Z,4.20
2023-04-30T05:49:15.380Z,3.67
2023-04-30T05:52:17.842Z,3.85
2023-04-30T05:55:20.592Z,4.07
2023-04-30T05:58:23.079Z,4.28
2023-04-30T06:01:25.880Z,4.28
2023-04-30T06:04:28.165Z,3.78
2023-04-30T06:07:30.907Z,3.72
2023-04-30T06:10:33.377Z,3.92
2023-04-30T06:13:35.797Z,4.30
2023-04-30T06:16:39.065Z,3.55
2023-04-30T06:19:41.461Z,3.35
2023-04-30T06:22:44.129Z,3.92
2023-04-30T06:25:46.860Z,4.45
2023-04-30T06:28:49.362Z,3.75
2023-04-30T06:31:52.606Z,3.45
2023-04-30T06:34:56.007Z,3.10
2023-04-30T06:37:58.597Z,3.78
2023-04-30T06:41:01.090Z,3.67
2023-04-30T06:44:03.775Z,3.63
2023-04-30T06:47:06.226Z,3.53
2023-04-30T06:50:09.588Z,3.33
2023-04-30T06:53:13.570Z,3.40
2023-04-30T06:56:16.528Z,3.58
2023-04-30T06:59:19.105Z,3.80
2023-04-30T07:02:22.558Z,3.83
2023-04-30T07:05:25.056Z,2.30
2023-04-30T07:08:27.500Z,2.85
2023-04-30T07:11:30.045Z,2.88
2023-04-30T07:14:32.611Z,2.88
2023-04-30T07:17:36.209Z,2.90
2023-04-30T07:20:38.794Z,3.35
2023-04-30T07:23:45.780Z,3.17
2023-04-30T07:26:50.513Z,3.00
2023-04-30T07:29:54.132Z,2.78
2023-04-30T07:32:57.675Z,2.45
2023-04-30T07:36:02.572Z,2.22
2023-04-30T07:39:06.527Z,2.50
2023-04-30T07:42:09.948Z,2.70
2023-04-30T07:45:13.495Z,1.92
2023-04-30T07:48:16.950Z,2.15
2023-04-30T07:51:19.443Z,1.90
2023-04-30T07:54:22.079Z,3.20
2023-04-30T07:57:26.697Z,2.58
2023-04-30T08:00:31.162Z,2.22
2023-04-30T08:03:34.561Z,2.50
2023-04-30T08:06:37.063Z,2.00
2023-04-30T08:09:42.509Z,2.42
2023-04-30T08:12:45.670Z,2.60
2023-04-30T08:15:48.450Z,2.58
2023-04-30T08:18:51.581Z,4.25
2023-04-30T08:21:54.438Z,3.05
2023-04-30T08:24:56.983Z,2.33
2023-04-30T08:28:00.681Z,1.92
2023-04-30T08:31:03.578Z,1.65
2023-04-30T08:34:08.128Z,1.58
2023-04-30T08:37:10.878Z,2.15
2023-04-30T08:40:18.017Z,1.55
2023-04-30T08:43:21.187Z,1.40
2023-04-30T08:46:25.493Z,2.25
2023-04-30T08:52:31.094Z,2.00
2023-04-30T08:55:34.801Z,1.30
2023-04-30T08:58:37.738Z,0.93
2023-04-30T09:01:40.487Z,1.25
2023-04-30T09:04:42.879Z,1.90
2023-04-30T09:10:53.528Z,1.55
2023-04-30T09:13:58.176Z,1.10
2023-04-30T09:17:00.635Z,1.45
2023-04-30T09:20:10.840Z,1.30
2023-04-30T09:23:13.303Z,1.17
2023-04-30T09:26:22.263Z,1.25
2023-04-30T09:29:37.368Z,1.40
2023-04-30T09:32:56.487Z,1.38
2023-04-30T09:35:59.163Z,1.70
2023-04-30T09:39:15.659Z,1.35
2023-04-30T09:42:19.772Z,1.48
2023-04-30T09:45:22.270Z,1.03
2023-04-30T09:48:28.359Z,1.60
2023-04-30T09:51:31.903Z,1.60
2023-04-30T09:54:34.394Z,1.03
2023-04-30T09:57:37.799Z,1.60
2023-04-30T10:00:40.797Z,1.40
2023-04-30T10:03:44.070Z,2.05
2023-04-30T10:06:47.236Z,2.42
2023-04-30T10:09:52.405Z,1.65
2023-04-30T10:13:01.635Z,1.65
2023-04-30T10:16:09.238Z,2.17
2023-04-30T10:19:15.750Z,2.00
2023-04-30T10:22:18.135Z,1.85
2023-04-30T10:25:20.730Z,1.67
2023-04-30T10:28:25.405Z,1.80
2023-04-30T10:31:29.350Z,1.73
2023-04-30T10:34:45.917Z,1.48
2023-04-30T10:37:49.900Z,1.40
2023-04-30T10:40:57.476Z,1.70
2023-04-30T10:44:02.945Z,1.55
2023-04-30T10:47:06.585Z,1.85
2023-04-30T10:50:10.032Z,1.27
2023-04-30T10:53:18.046Z,1.95
2023-04-30T10:56:33.303Z,1.75
2023-04-30T10:59:35.925Z,1.50
2023-04-30T11:02:47.488Z,1.33
2023-04-30T11:05:50.341Z,1.23
2023-04-30T11:08:52.772Z,1.50
2023-04-30T11:12:03.893Z,1.83
2023-04-30T11:15:12.765Z,1.52
2023-04-30T11:18:15.270Z,1.50
2023-04-30T11:21:17.682Z,1.58
2023-04-30T11:24:20.727Z,1.40
2023-04-30T11:27:24.435Z,1.30
2023-04-30T11:30:27.109Z,1.30
2023-04-30T11:33:32.143Z,1.85
2023-04-30T11:36:35.246Z,1.20
2023-04-30T11:39:37.813Z,1.95
2023-04-30T11:42:44.917Z,1.60
2023-04-30T11:46:10.373Z,1.08
2023-04-30T11:49:12.925Z,1.10
2023-04-30T11:52:15.399Z,1.60
2023-04-30T11:55:19.811Z,1.23
2023-04-30T12:01:28.908Z,1.10
2023-04-30T12:04:31.404Z,1.77
2023-04-30T12:07:34.920Z,1.23
2023-04-30T12:10:37.562Z,1.27
2023-04-30T12:13:39.981Z,1.27
2023-04-30T12:16:46.260Z,1.52
2023-04-30T12:19:48.625Z,1.40
2023-04-30T12:22:51.491Z,1.65
2023-04-30T12:25:54.141Z,1.50
2023-04-30T12:28:56.842Z,1.70
2023-04-30T12:32:00.097Z,1.17
2023-04-30T12:35:04.989Z,1.38
2023-04-30T12:38:09.857Z,1.45
2023-04-30T12:41:17.496Z,1.58
2023-04-30T12:44:27.763Z,1.50
2023-04-30T12:47:30.955Z,1.20
2023-04-30T12:50:33.766Z,1.75
2023-04-30T12:53:46.032Z,1.27
2023-04-30T12:57:12.039Z,1.27
2023-04-30T13:00:15.199Z,1.65
2023-04-30T13:03:21.041Z,1.33
2023-04-30T13:06:23.866Z,1.42
2023-04-30T13:09:26.469Z,1.48
2023-04-30T13:12:29.071Z,1.30
2023-04-30T13:15:31.860Z,1.52
2023-04-30T13:18:34.332Z,1.70
2023-04-30T13:21:36.799Z,1.40
2023-04-30T13:24:39.157Z,1.10
2023-04-30T13:27:41.846Z,1.08
2023-04-30T13:30:44.448Z,1.30
2023-04-30T13:33:47.002Z,1.25
2023-04-30T13:36:49.624Z,1.27
2023-04-30T13:39:52.125Z,1.30
2023-04-30T13:42:55.060Z,1.23
2023-04-30T13:46:02.823Z,1.35
2023-04-30T13:49:06.362Z,1.00
2023-04-30T13:52:08.838Z,1.40
2023-04-30T13:55:11.321Z,1.50
2023-04-30T13:58:13.946Z,1.50
2023-04-30T14:01:16.375Z,1.20
2023-04-30T14:04:19.137Z,1.20
2023-04-30T14:07:21.594Z,1.27
2023-04-30T14:10:24.055Z,1.48
2023-04-30T14:13:26.422Z,1.30
2023-04-30T14:16:29.099Z,1.30
2023-04-30T14:19:31.858Z,1.10
2023-04-30T14:22:38.667Z,1.33
2023-04-30T14:25:42.288Z,1.00
2023-04-30T14:28:45.211Z,0.77
2023-04-30T14:31:47.783Z,1.20
2023-04-30T14:34:50.283Z,1.60
2023-04-30T14:37:53.957Z,1.30
2023-04-30T14:40:56.331Z,1.08
2023-04-30T14:43:58.793Z,1.17
2023-04-30T14:47:01.590Z,1.00
2023-04-30T14:50:04.458Z,2.08
2023-04-30T14:53:07.077Z,0.98
2023-04-30T14:56:10.135Z,1.05
2023-04-30T14:59:13.778Z,1.00
2023-04-30T15:02:16.372Z,0.73
2023-04-30T15:05:19.218Z,1.20
2023-04-30T15:08:22.012Z,1.42
2023-04-30T15:11:25.093Z,1.50
2023-04-30T15:14:27.639Z,1.30
2023-04-30T15:17:30.096Z,1.25
2023-04-30T15:20:32.692Z,1.27
2023-04-30T15:23:35.082Z,1.58
2023-04-30T15:26:37.487Z,1.17
2023-04-30T15:29:40.804Z,1.70
2023-04-30T15:32:43.231Z,1.73
2023-04-30T15:35:46.313Z,1.63
2023-04-30T15:38:48.690Z,1.67
2023-04-30T15:41:51.168Z,1.65
2023-04-30T15:44:53.939Z,1.73
2023-04-30T15:47:56.393Z,1.58
2023-04-30T15:50:58.828Z,1.83
2023-04-30T15:54:01.150Z,1.27
2023-04-30T15:57:04.042Z,1.58
2023-04-30T16:00:07.295Z,1.92
2023-04-30T16:03:14.058Z,1.48
2023-04-30T16:06:17.266Z,1.55
2023-04-30T16:09:20.000Z,1.25
2023-04-30T16:12:23.352Z,1.48
2023-04-30T16:15:26.213Z,1.55
2023-04-30T16:18:30.249Z,1.73
2023-04-30T16:21:34.597Z,5.38
2023-04-30T16:24:38.205Z,1.73
2023-04-30T16:27:40.883Z,1.77
2023-04-30T16:30:43.888Z,1.40
2023-04-30T16:33:47.038Z,1.90
2023-04-30T16:36:49.646Z,1.55
2023-04-30T16:39:51.982Z,1.75
2023-04-30T16:42:54.474Z,6.97
2023-04-30T16:45:56.997Z,10.60
2023-04-30T16:49:00.013Z,16.85
2023-04-30T16:52:02.589Z,7.47
2023-04-30T16:55:05.243Z,2.55
2023-04-30T16:58:07.608Z,3.72
2023-04-30T17:01:10.052Z,13.93
2023-04-30T17:04:12.658Z,20.98
2023-04-30T17:07:16.418Z,23.77
2023-04-30T17:10:19.737Z,10.90
2023-04-30T17:13:24.246Z,16.10
2023-04-30T17:16:27.144Z,6.95
2023-04-30T17:19:29.614Z,10.07
2023-04-30T17:22:31.919Z,2.63
2023-04-30T17:25:34.507Z,1.70
2023-04-30T17:28:37.684Z,3.60
2023-04-30T17:31:40.265Z,3.10
2023-04-30T17:34:42.819Z,1.80
2023-04-30T17:37:45.212Z,6.60
2023-04-30T17:40:47.679Z,8.50
2023-04-30T17:43:51.820Z,4.95
2023-04-30T17:46:55.369Z,3.38
2023-04-30T17:49:58.360Z,3.33
2023-04-30T17:53:00.864Z,4.63
2023-04-30T17:56:03.982Z,7.15
2023-04-30T17:59:07.681Z,5.28
2023-04-30T18:02:10.073Z,4.90
2023-04-30T18:05:12.616Z,7.78
2023-04-30T18:08:17.250Z,5.50
2023-04-30T18:11:19.613Z,4.55
2023-04-30T18:14:21.950Z,6.15
2023-04-30T18:17:24.342Z,6.25
2023-04-30T18:20:26.961Z,7.03
2023-04-30T18:23:29.242Z,6.68
2023-04-30T18:26:31.800Z,6.82
2023-04-30T18:29:35.567Z,7.05
2023-04-30T18:32:38.321Z,5.75
2023-04-30T18:35:40.871Z,6.65
2023-04-30T18:38:45.663Z,7.68
2023-04-30T18:41:48.197Z,7.50
2023-04-30T18:44:51.072Z,9.10
2023-04-30T18:47:53.411Z,8.93
2023-04-30T18:50:56.086Z,7.47
2023-04-30T18:53:59.081Z,7.35
2023-04-30T18:57:02.129Z,7.90
2023-04-30T19:00:06.872Z,6.68
2023-04-30T19:03:09.867Z,6.45
2023-04-30T19:06:12.445Z,5.75
2023-04-30T19:09:15.515Z,6.03
2023-04-30T19:12:18.218Z,7.45
2023-04-30T19:15:20.585Z,7.90
2023-04-30T19:18:24.951Z,10.02
2023-04-30T19:24:31.117Z,9.90
2023-04-30T19:27:33.496Z,10.45
2023-04-30T19:30:35.967Z,10.48
2023-04-30T19:33:41.075Z,9.40
2023-04-30T19:36:46.522Z,11.38
2023-04-30T19:39:48.909Z,11.15
2023-04-30T19:42:53.093Z,11.43
2023-04-30T19:45:58.321Z,10.23
2023-04-30T19:49:00.684Z,10.95
2023-04-30T19:52:03.232Z,11.18
2023-04-30T19:55:06.004Z,11.02
2023-04-30T19:58:08.602Z,10.88
2023-04-30T20:01:11.070Z,10.32
2023-04-30T20:04:13.461Z,11.50
2023-04-30T20:07:15.950Z,13.63
2023-04-30T20:10:19.870Z,14.35
2023-04-30T20:13:24.504Z,15.05
2023-04-30T20:16:27.081Z,10.60
2023-04-30T20:19:29.510Z,9.20
2023-04-30T20:22:33.010Z,11.38
2023-04-30T20:25:35.714Z,12.23
2023-04-30T20:28:38.502Z,12.88
2023-04-30T20:31:41.095Z,12.00
2023-04-30T20:34:43.743Z,10.70
2023-04-30T20:37:46.821Z,8.50
2023-04-30T20:40:49.589Z,6.05
2023-04-30T20:43:52.260Z,5.60
2023-04-30T20:46:54.781Z,5.28
2023-04-30T20:49:58.093Z,5.40
2023-04-30T20:53:00.819Z,5.78
2023-04-30T20:56:03.817Z,7.07
2023-04-30T20:59:06.869Z,7.03
2023-04-30T21:02:10.382Z,6.82
2023-04-30T21:05:12.964Z,8.68
2023-04-30T21:08:15.481Z,6.10
2023-04-30T21:11:19.448Z,7.18
2023-04-30T21:14:22.134Z,7.13
2023-04-30T21:17:24.614Z,6.57
2023-04-30T21:20:27.147Z,7.20
2023-04-30T21:23:30.155Z,7.43
2023-04-30T21:26:33.022Z,6.75
2023-04-30T21:29:36.881Z,6.43
2023-04-30T21:32:42.514Z,7.57
2023-04-30T21:35:45.366Z,6.95
2023-04-30T21:38:47.713Z,7.30
2023-04-30T21:41:50.379Z,8.50
2023-04-30T21:44:53.740Z,6.82
2023-04-30T21:47:56.323Z,7.72
2023-04-30T21:50:58.960Z,7.78
2023-04-30T21:54:01.505Z,8.30
2023-04-30T21:57:04.472Z,8.52
2023-04-30T22:00:14.513Z,10.75
2023-04-30T22:03:23.101Z,10.55
2023-04-30T22:06:25.775Z,10.85
2023-04-30T22:09:28.240Z,10.10
2023-04-30T22:12:30.706Z,10.13
2023-04-30T22:15:47.196Z,11.38
2023-04-30T22:18:50.512Z,10.77
2023-04-30T22:21:53.081Z,11.82
2023-04-30T22:24:56.019Z,12.38
2023-04-30T22:27:58.348Z,11.48
2023-04-30T22:31:00.825Z,11.50
2023-04-30T22:34:03.523Z,9.63
2023-04-30T22:37:06.335Z,9.57
2023-04-30T22:40:09.175Z,10.75
2023-04-30T22:43:11.843Z,12.02
2023-04-30T22:46:14.603Z,11.98
2023-04-30T22:49:29.989Z,11.82
2023-04-30T22:52:33.607Z,14.07
2023-04-30T22:55:36.116Z,13.05
2023-04-30T22:58:38.590Z,13.10
2023-04-30T23:01:40.934Z,15.63
2023-04-30T23:04:43.292Z,20.05
2023-04-30T23:07:49.567Z,21.30
2023-04-30T23:10:53.351Z,20.40
2023-04-30T23:13:56.295Z,21.25
2023-04-30T23:16:58.950Z,14.40
2023-04-30T23:20:01.598Z,17.38
2023-04-30T23:23:04.675Z,16.52
2023-04-30T23:26:07.201Z,14.18
2023-04-30T23:29:09.636Z,13.38
2023-04-30T23:32:12.159Z,14.00
2023-04-30T23:35:14.687Z,13.90
2023-04-30T23:38:16.957Z,16.00
2023-04-30T23:41:19.895Z,17.65
2023-04-30T23:44:22.198Z,16.63
2023-04-30T23:47:24.655Z,16.20
2023-04-30T23:50:27.103Z,18.45
2023-04-30T23:53:30.105Z,18.00
2023-04-30T23:56:37.429Z,18.20
2023-04-30T23:59:39.838Z,18.00
